sensor_id;sensor_type;location;lat;lon;timestamp;temperature;humidity
74296;SHT30;62690;48.420;-4.512;2022-08-21T13:25:39;23.54;60.93
74296;SHT30;62690;48.420;-4.512;2022-08-21T13:28:11;23.78;59.90
74296;SHT30;62690;48.420;-4.512;2022-08-21T13:30:54;24.02;58.65
74296;SHT30;62690;48.420;-4.512;2022-08-21T13:33:24;24.19;58.77
74296;SHT30;62690;48.420;-4.512;2022-08-21T13:38:18;24.29;58.70
74296;SHT30;62690;48.420;-4.512;2022-08-21T13:40:51;24.28;59.14
74296;SHT30;62690;48.420;-4.512;2022-08-21T13:43:21;24.33;58.85
74296;SHT30;62690;48.420;-4.512;2022-08-21T13:45:51;24.33;58.96
74296;SHT30;62690;48.420;-4.512;2022-08-21T13:48:18;24.33;59.26
74296;SHT30;62690;48.420;-4.512;2022-08-21T13:50:44;24.30;59.30
74296;SHT30;62690;48.420;-4.512;2022-08-21T13:56:28;24.33;60.39
74296;SHT30;62690;48.420;-4.512;2022-08-21T13:58:55;24.32;59.18
74296;SHT30;62690;48.420;-4.512;2022-08-21T14:01:28;24.32;59.10
74296;SHT30;62690;48.420;-4.512;2022-08-21T14:04:02;24.33;58.84
74296;SHT30;62690;48.420;-4.512;2022-08-21T14:06:34;24.33;59.13
74296;SHT30;62690;48.420;-4.512;2022-08-21T14:09:09;24.36;59.58
74296;SHT30;62690;48.420;-4.512;2022-08-21T14:11:35;24.39;59.88
74296;SHT30;62690;48.420;-4.512;2022-08-21T14:14:04;24.40;59.39
74296;SHT30;62690;48.420;-4.512;2022-08-21T14:16:45;24.46;58.94
74296;SHT30;62690;48.420;-4.512;2022-08-21T14:21:47;24.49;59.17
74296;SHT30;62690;48.420;-4.512;2022-08-21T14:26:54;24.50;59.08
74296;SHT30;62690;48.420;-4.512;2022-08-21T14:29:24;24.50;58.79
74296;SHT30;62690;48.420;-4.512;2022-08-21T14:31:54;24.50;58.95
74296;SHT30;62690;48.420;-4.512;2022-08-21T14:34:21;24.50;58.55
74296;SHT30;62690;48.420;-4.512;2022-08-21T14:36:48;24.53;58.62
74296;SHT30;62690;48.420;-4.512;2022-08-21T14:39:14;24.55;58.53
74296;SHT30;62690;48.420;-4.512;2022-08-21T14:41:39;24.52;58.32
74296;SHT30;62690;48.420;-4.512;2022-08-21T14:44:07;24.53;58.50
74296;SHT30;62690;48.420;-4.512;2022-08-21T14:46:33;24.55;58.44
74296;SHT30;62690;48.420;-4.512;2022-08-21T14:49:02;24.53;58.65
74296;SHT30;62690;48.420;-4.512;2022-08-21T14:51:28;24.56;58.62
74296;SHT30;62690;48.420;-4.512;2022-08-21T14:53:53;24.52;58.43
74296;SHT30;62690;48.420;-4.512;2022-08-21T14:56:19;24.52;58.57
74296;SHT30;62690;48.420;-4.512;2022-08-21T14:58:47;24.52;58.90
74296;SHT30;62690;48.420;-4.512;2022-08-21T15:01:19;24.53;58.11
74296;SHT30;62690;48.420;-4.512;2022-08-21T15:03:46;24.53;58.69
74296;SHT30;62690;48.420;-4.512;2022-08-21T15:06:14;24.56;58.87
74296;SHT30;62690;48.420;-4.512;2022-08-21T15:08:39;24.60;59.21
74296;SHT30;62690;48.420;-4.512;2022-08-21T15:11:06;24.57;58.47
74296;SHT30;62690;48.420;-4.512;2022-08-21T15:13:32;24.61;58.16
74296;SHT30;62690;48.420;-4.512;2022-08-21T15:15:58;24.59;58.51
74296;SHT30;62690;48.420;-4.512;2022-08-21T15:18:26;24.57;58.46
74296;SHT30;62690;48.420;-4.512;2022-08-21T15:20:52;24.55;58.35
74296;SHT30;62690;48.420;-4.512;2022-08-21T15:23:17;24.53;58.47
74296;SHT30;62690;48.420;-4.512;2022-08-21T15:25:45;24.50;58.93
74296;SHT30;62690;48.420;-4.512;2022-08-21T15:28:11;24.49;59.17
74296;SHT30;62690;48.420;-4.512;2022-08-21T15:30:39;24.49;59.37
74296;SHT30;62690;48.420;-4.512;2022-08-21T15:33:05;24.50;59.72
74296;SHT30;62690;48.420;-4.512;2022-08-21T15:35:30;24.50;59.21
74296;SHT30;62690;48.420;-4.512;2022-08-21T15:37:56;24.49;59.38
74296;SHT30;62690;48.420;-4.512;2022-08-21T15:40:22;24.46;59.36
74296;SHT30;62690;48.420;-4.512;2022-08-21T15:42:48;24.46;59.57
74296;SHT30;62690;48.420;-4.512;2022-08-21T15:45:14;24.44;59.75
74296;SHT30;62690;48.420;-4.512;2022-08-21T15:47:43;24.40;59.94
74296;SHT30;62690;48.420;-4.512;2022-08-21T15:50:10;24.41;59.91
74296;SHT30;62690;48.420;-4.512;2022-08-21T15:52:36;24.37;59.79
74296;SHT30;62690;48.420;-4.512;2022-08-21T15:55:03;24.36;59.86
74296;SHT30;62690;48.420;-4.512;2022-08-21T15:57:29;24.33;60.10
74296;SHT30;62690;48.420;-4.512;2022-08-21T15:59:57;24.32;60.24
74296;SHT30;62690;48.420;-4.512;2022-08-21T16:02:29;24.29;60.52
74296;SHT30;62690;48.420;-4.512;2022-08-21T16:04:55;24.29;60.50
74296;SHT30;62690;48.420;-4.512;2022-08-21T16:07:21;24.28;60.66
74296;SHT30;62690;48.420;-4.512;2022-08-21T16:09:46;24.26;60.67
74296;SHT30;62690;48.420;-4.512;2022-08-21T16:12:18;24.19;60.79
74296;SHT30;62690;48.420;-4.512;2022-08-21T16:14:44;24.19;61.08
74296;SHT30;62690;48.420;-4.512;2022-08-21T16:17:10;24.13;61.07
74296;SHT30;62690;48.420;-4.512;2022-08-21T16:19:36;24.12;61.18
74296;SHT30;62690;48.420;-4.512;2022-08-21T16:22:02;24.08;61.31
74296;SHT30;62690;48.420;-4.512;2022-08-21T16:24:28;24.04;61.71
74296;SHT30;62690;48.420;-4.512;2022-08-21T16:26:54;23.94;61.76
74296;SHT30;62690;48.420;-4.512;2022-08-21T16:29:21;23.94;61.87
74296;SHT30;62690;48.420;-4.512;2022-08-21T16:31:47;23.86;62.09
74296;SHT30;62690;48.420;-4.512;2022-08-21T16:34:16;23.84;62.51
74296;SHT30;62690;48.420;-4.512;2022-08-21T16:36:42;23.79;62.68
74296;SHT30;62690;48.420;-4.512;2022-08-21T16:39:07;23.78;62.64
74296;SHT30;62690;48.420;-4.512;2022-08-21T16:41:34;23.77;63.03
74296;SHT30;62690;48.420;-4.512;2022-08-21T16:44:01;23.74;63.23
74296;SHT30;62690;48.420;-4.512;2022-08-21T16:46:28;23.74;63.23
74296;SHT30;62690;48.420;-4.512;2022-08-21T16:48:55;23.75;63.34
74296;SHT30;62690;48.420;-4.512;2022-08-21T16:51:20;23.74;63.42
74296;SHT30;62690;48.420;-4.512;2022-08-21T16:53:46;23.74;63.54
74296;SHT30;62690;48.420;-4.512;2022-08-21T16:56:13;23.75;63.47
74296;SHT30;62690;48.420;-4.512;2022-08-21T16:58:41;23.72;63.65
74296;SHT30;62690;48.420;-4.512;2022-08-21T17:01:11;23.71;63.79
74296;SHT30;62690;48.420;-4.512;2022-08-21T17:03:41;23.69;63.91
74296;SHT30;62690;48.420;-4.512;2022-08-21T17:06:08;23.67;63.96
74296;SHT30;62690;48.420;-4.512;2022-08-21T17:08:34;23.64;64.57
74296;SHT30;62690;48.420;-4.512;2022-08-21T17:11:00;23.59;65.11
74296;SHT30;62690;48.420;-4.512;2022-08-21T17:13:26;23.55;65.15
74296;SHT30;62690;48.420;-4.512;2022-08-21T17:15:52;23.53;65.17
74296;SHT30;62690;48.420;-4.512;2022-08-21T17:18:20;23.48;65.21
74296;SHT30;62690;48.420;-4.512;2022-08-21T17:20:46;23.44;65.05
74296;SHT30;62690;48.420;-4.512;2022-08-21T17:23:13;23.41;65.18
74296;SHT30;62690;48.420;-4.512;2022-08-21T17:25:41;23.38;65.17
74296;SHT30;62690;48.420;-4.512;2022-08-21T17:28:07;23.34;65.39
74296;SHT30;62690;48.420;-4.512;2022-08-21T17:30:35;23.34;65.70
74296;SHT30;62690;48.420;-4.512;2022-08-21T17:33:02;23.34;65.86
74296;SHT30;62690;48.420;-4.512;2022-08-21T17:35:27;23.28;66.11
74296;SHT30;62690;48.420;-4.512;2022-08-21T17:37:53;23.28;66.20
74296;SHT30;62690;48.420;-4.512;2022-08-21T17:40:19;23.23;66.52
74296;SHT30;62690;48.420;-4.512;2022-08-21T17:42:46;23.17;66.56
74296;SHT30;62690;48.420;-4.512;2022-08-21T17:45:14;23.09;66.52
74296;SHT30;62690;48.420;-4.512;2022-08-21T17:47:40;23.06;66.59
74296;SHT30;62690;48.420;-4.512;2022-08-21T17:50:07;22.99;66.73
74296;SHT30;62690;48.420;-4.512;2022-08-21T17:52:33;22.99;66.61
74296;SHT30;62690;48.420;-4.512;2022-08-21T17:54:59;22.93;66.91
74296;SHT30;62690;48.420;-4.512;2022-08-21T17:57:24;22.93;66.93
74296;SHT30;62690;48.420;-4.512;2022-08-21T17:59:53;22.92;67.20
74296;SHT30;62690;48.420;-4.512;2022-08-21T18:02:19;22.89;67.30
74296;SHT30;62690;48.420;-4.512;2022-08-21T18:04:47;22.89;67.34
74296;SHT30;62690;48.420;-4.512;2022-08-21T18:07:14;22.88;67.63
74296;SHT30;62690;48.420;-4.512;2022-08-21T18:09:39;22.83;67.52
74296;SHT30;62690;48.420;-4.512;2022-08-21T18:12:05;22.88;67.69
74296;SHT30;62690;48.420;-4.512;2022-08-21T18:14:33;22.85;67.76
74296;SHT30;62690;48.420;-4.512;2022-08-21T18:16:59;22.77;68.16
74296;SHT30;62690;48.420;-4.512;2022-08-21T18:19:25;22.77;68.18
74296;SHT30;62690;48.420;-4.512;2022-08-21T18:21:54;22.73;68.11
74296;SHT30;62690;48.420;-4.512;2022-08-21T18:24:21;22.70;68.99
74296;SHT30;62690;48.420;-4.512;2022-08-21T18:26:48;22.66;68.88
74296;SHT30;62690;48.420;-4.512;2022-08-21T18:29:16;22.65;69.06
74296;SHT30;62690;48.420;-4.512;2022-08-21T18:31:43;22.65;69.44
74296;SHT30;62690;48.420;-4.512;2022-08-21T18:34:28;22.62;69.47
74296;SHT30;62690;48.420;-4.512;2022-08-21T18:36:56;22.53;69.74
74296;SHT30;62690;48.420;-4.512;2022-08-21T18:39:22;22.53;70.17
74296;SHT30;62690;48.420;-4.512;2022-08-21T18:41:51;22.52;70.37
74296;SHT30;62690;48.420;-4.512;2022-08-21T18:44:19;22.48;70.68
74296;SHT30;62690;48.420;-4.512;2022-08-21T18:46:49;22.47;70.82
74296;SHT30;62690;48.420;-4.512;2022-08-21T18:49:16;22.44;71.59
74296;SHT30;62690;48.420;-4.512;2022-08-21T18:51:41;22.42;71.33
74296;SHT30;62690;48.420;-4.512;2022-08-21T18:54:06;22.34;71.59
74296;SHT30;62690;48.420;-4.512;2022-08-21T18:56:32;22.35;71.49
74296;SHT30;62690;48.420;-4.512;2022-08-21T18:59:02;22.32;71.42
74296;SHT30;62690;48.420;-4.512;2022-08-21T19:01:29;22.29;72.16
74296;SHT30;62690;48.420;-4.512;2022-08-21T19:03:55;22.28;72.12
74296;SHT30;62690;48.420;-4.512;2022-08-21T19:06:21;22.27;71.99
74296;SHT30;62690;48.420;-4.512;2022-08-21T19:08:46;22.24;72.21
74296;SHT30;62690;48.420;-4.512;2022-08-21T19:11:12;22.24;72.25
74296;SHT30;62690;48.420;-4.512;2022-08-21T19:13:38;22.22;72.24
74296;SHT30;62690;48.420;-4.512;2022-08-21T19:16:04;22.18;72.65
74296;SHT30;62690;48.420;-4.512;2022-08-21T19:18:32;22.18;72.49
74296;SHT30;62690;48.420;-4.512;2022-08-21T19:20:59;22.14;73.09
74296;SHT30;62690;48.420;-4.512;2022-08-21T19:23:25;22.12;72.99
74296;SHT30;62690;48.420;-4.512;2022-08-21T19:25:54;22.07;73.62
74296;SHT30;62690;48.420;-4.512;2022-08-21T19:28:28;22.05;73.01
74296;SHT30;62690;48.420;-4.512;2022-08-21T19:31:09;22.04;73.04
74296;SHT30;62690;48.420;-4.512;2022-08-21T19:33:39;22.05;73.43
